Time;durP1;ratioP1;P1;durP2;ratioP2;P2;SDS_P1;SDS_P2;PMS_P1;PMS_P2;Temp;Humidity;BMP_temperature;BMP_pressure;BME280_temperature;BME280_humidity;BME280_pressure;Samples;Min_cycle;Max_cycle;Signal;HPM_P1;HPM_P2
2021/11/03 00:00:33;;;;;;;4.55;2.53;;;6.80;95.20;;;;;;5020094;28;20030;-70
2021/11/03 00:02:58;;;;;;;3.08;2.25;;;6.70;95.20;;;;;;5019323;28;20213;-70
2021/11/03 00:05:24;;;;;;;2.58;1.95;;;6.70;95.20;;;;;;5003782;28;20018;-70
2021/11/03 00:07:50;;;;;;;4.85;2.28;;;6.70;95.10;;;;;;5023402;28;20022;-71
2021/11/03 00:10:16;;;;;;;3.40;2.25;;;6.60;95.20;;;;;;5007717;28;20236;-70
2021/11/03 00:12:42;;;;;;;6.20;3.13;;;6.60;95.40;;;;;;5007335;28;20034;-71
2021/11/03 00:15:09;;;;;;;3.42;2.25;;;6.50;95.40;;;;;;5024831;28;20036;-70
2021/11/03 00:17:37;;;;;;;3.17;2.17;;;6.50;95.40;;;;;;5023781;28;20029;-70
2021/11/03 00:20:03;;;;;;;3.22;2.15;;;6.40;95.30;;;;;;5023788;28;20332;-70
2021/11/03 00:22:29;;;;;;;7.30;2.63;;;6.40;95.40;;;;;;5023720;28;20029;-70
2021/11/03 00:24:55;;;;;;;3.60;2.17;;;6.40;95.40;;;;;;5022900;28;20030;-70
2021/11/03 00:27:21;;;;;;;5.10;2.55;;;6.30;95.50;;;;;;5024631;28;20018;-71
2021/11/03 00:29:46;;;;;;;4.88;2.78;;;6.30;95.40;;;;;;5023782;28;20034;-71
2021/11/03 00:32:14;;;;;;;3.90;2.65;;;6.30;95.40;;;;;;5006719;28;20228;-70
2021/11/03 00:34:40;;;;;;;4.60;2.42;;;6.30;95.40;;;;;;5007260;28;20025;-71
2021/11/03 00:37:06;;;;;;;2.83;2.13;;;6.20;95.70;;;;;;5006607;28;20033;-71
2021/11/03 00:39:32;;;;;;;4.03;2.95;;;6.20;95.50;;;;;;5007198;28;20025;-71
2021/11/03 00:41:57;;;;;;;4.75;2.10;;;6.20;95.50;;;;;;5024290;28;20033;-71
2021/11/03 00:44:24;;;;;;;3.55;2.42;;;6.20;95.60;;;;;;5023098;28;20025;-71
2021/11/03 00:46:49;;;;;;;3.47;1.92;;;6.20;95.60;;;;;;5006929;28;20024;-71
2021/11/03 00:49:16;;;;;;;5.32;2.50;;;6.20;95.60;;;;;;5022909;28;20324;-70
2021/11/03 00:51:42;;;;;;;4.40;2.40;;;6.20;95.50;;;;;;5022904;28;20034;-70
2021/11/03 00:54:07;;;;;;;5.32;2.58;;;6.20;95.50;;;;;;5022937;28;20275;-70
2021/11/03 00:56:33;;;;;;;2.78;2.10;;;6.10;95.40;;;;;;5006618;28;20030;-71
2021/11/03 00:58:59;;;;;;;3.72;2.20;;;6.10;95.50;;;;;;5023120;28;20224;-70
2021/11/03 01:01:25;;;;;;;6.90;3.10;;;6.00;95.50;;;;;;5022918;28;20097;-70
2021/11/03 01:03:51;;;;;;;6.22;2.45;;;6.00;95.50;;;;;;5006449;28;20049;-70
2021/11/03 01:06:17;;;;;;;3.72;2.47;;;6.00;95.50;;;;;;5022872;28;20041;-70
2021/11/03 01:08:43;;;;;;;6.63;2.83;;;6.00;95.50;;;;;;5022782;28;20386;-70
2021/11/03 01:11:08;;;;;;;3.65;2.60;;;6.00;95.70;;;;;;5006296;28;20025;-71
2021/11/03 01:13:34;;;;;;;3.72;2.17;;;5.90;95.70;;;;;;5023675;28;20041;-71
2021/11/03 01:16:01;;;;;;;4.28;2.78;;;5.90;95.80;;;;;;5022581;28;20053;-70
2021/11/03 01:18:28;;;;;;;2.60;2.15;;;6.00;95.70;;;;;;5038324;28;20029;-71
2021/11/03 01:20:54;;;;;;;5.13;2.10;;;6.00;95.80;;;;;;5022686;28;20045;-70
2021/11/03 01:23:20;;;;;;;3.60;2.42;;;6.00;95.90;;;;;;5022445;28;20089;-71
2021/11/03 01:25:46;;;;;;;5.03;2.25;;;6.00;95.80;;;;;;5022453;28;20037;-71
2021/11/03 01:28:12;;;;;;;4.13;2.20;;;6.00;95.70;;;;;;5022529;28;20085;-71
2021/11/03 01:30:38;;;;;;;3.33;1.85;;;6.10;95.60;;;;;;5022314;28;20053;-70
2021/11/03 01:33:05;;;;;;;3.08;1.90;;;6.10;95.60;;;;;;5022152;28;20024;-70
2021/11/03 01:35:31;;;;;;;3.33;2.05;;;6.10;95.70;;;;;;5022347;28;20028;-71
2021/11/03 01:37:57;;;;;;;2.63;2.10;;;6.10;95.60;;;;;;5023272;28;20353;-70
2021/11/03 01:40:26;;;;;;;3.67;2.05;;;6.20;95.40;;;;;;5023326;28;20054;-70
2021/11/03 01:42:52;;;;;;;3.15;1.90;;;6.10;95.50;;;;;;5005757;28;20049;-70
2021/11/03 01:45:19;;;;;;;5.78;2.05;;;6.10;95.60;;;;;;5005671;28;20248;-71
2021/11/03 01:47:59;;;;;;;3.35;1.88;;;6.10;95.50;;;;;;5021857;28;20025;-71
2021/11/03 01:50:35;;;;;;;3.22;2.00;;;6.00;95.60;;;;;;5023261;28;20026;-70
2021/11/03 01:53:21;;;;;;;3.25;1.95;;;6.00;95.60;;;;;;5021207;28;20029;-71
2021/11/03 01:56:03;;;;;;;2.78;1.88;;;6.00;95.60;;;;;;4990607;28;20018;-70
2021/11/03 01:59:05;;;;;;;4.88;2.20;;;6.00;95.60;;;;;;5005787;28;20053;-71
2021/11/03 02:01:31;;;;;;;3.17;2.15;;;6.00;95.40;;;;;;5006834;28;20540;-70
2021/11/03 02:03:56;;;;;;;3.15;2.15;;;6.00;95.30;;;;;;5005153;28;20030;-70
2021/11/03 02:06:24;;;;;;;3.78;1.90;;;6.00;95.30;;;;;;5021783;28;20017;-70
2021/11/03 02:08:50;;;;;;;4.65;2.83;;;6.00;95.10;;;;;;5021777;28;20033;-71
2021/11/03 02:11:16;;;;;;;6.70;2.65;;;6.10;94.70;;;;;;5022652;28;20037;-70
2021/11/03 02:13:42;;;;;;;4.22;2.80;;;6.00;95.00;;;;;;5005229;28;20333;-71
2021/11/03 02:16:09;;;;;;;2.65;2.30;;;6.00;94.90;;;;;;5021701;28;20117;-70
2021/11/03 02:18:35;;;;;;;3.20;2.63;;;6.00;95.00;;;;;;5021722;28;20249;-70
2021/11/03 02:21:02;;;;;;;2.85;2.10;;;6.00;94.80;;;;;;5005306;28;20030;-71
2021/11/03 02:24:03;;;;;;;5.18;2.45;;;6.00;95.10;;;;;;5005117;28;20013;-71
2021/11/03 02:26:31;;;;;;;4.07;2.90;;;6.10;95.10;;;;;;5021242;28;20056;-72
2021/11/03 02:28:57;;;;;;;4.50;2.38;;;6.10;94.90;;;;;;5005144;28;20065;-72
2021/11/03 02:31:32;;;;;;;3.95;2.15;;;6.10;94.90;;;;;;5004435;28;20049;-71
2021/11/03 02:33:58;;;;;;;3.45;2.42;;;6.10;95.00;;;;;;5022223;28;20301;-71
2021/11/03 02:36:24;;;;;;;5.75;2.78;;;6.00;95.00;;;;;;5021233;28;20034;-70
2021/11/03 02:38:50;;;;;;;4.53;2.70;;;6.00;94.90;;;;;;5021139;28;20289;-72
2021/11/03 02:41:27;;;;;;;5.20;2.90;;;6.00;94.90;;;;;;5021939;28;20104;-72
2021/11/03 02:44:11;;;;;;;4.97;3.03;;;5.90;95.00;;;;;;5005646;28;20057;-72
2021/11/03 02:46:37;;;;;;;4.03;2.63;;;5.90;95.10;;;;;;5021265;28;20026;-71
2021/11/03 02:49:04;;;;;;;6.70;3.55;;;5.90;95.10;;;;;;5020571;28;20060;-71
2021/11/03 02:51:36;;;;;;;5.78;2.97;;;5.80;94.90;;;;;;5004647;28;20021;-71
2021/11/03 02:54:05;;;;;;;6.05;3.70;;;5.80;95.00;;;;;;5020897;28;20036;-71
2021/11/03 02:56:35;;;;;;;8.10;3.58;;;5.80;94.80;;;;;;5021867;28;20060;-72
2021/11/03 02:59:02;;;;;;;7.88;3.80;;;5.80;94.80;;;;;;5005007;28;20029;-72
2021/11/03 03:01:40;;;;;;;;;;;5.80;94.80;;;;;;5022302;28;20030;-71
2021/11/03 03:04:15;;;;;;;8.20;3.83;;;5.70;94.90;;;;;;5020539;28;19940;-72
2021/11/03 03:06:41;;;;;;;6.22;3.50;;;5.80;94.80;;;;;;5021989;28;20026;-71
2021/11/03 03:09:07;;;;;;;8.70;4.22;;;5.80;94.80;;;;;;5020641;28;20029;-71
2021/11/03 03:11:35;;;;;;;7.10;4.32;;;5.70;94.90;;;;;;5004281;28;20038;-71
2021/11/03 03:14:01;;;;;;;8.60;4.25;;;5.70;95.10;;;;;;5004211;28;20128;-71
2021/11/03 03:16:27;;;;;;;8.13;4.60;;;5.70;95.10;;;;;;5020637;28;20025;-71
2021/11/03 03:18:53;;;;;;;9.52;4.60;;;5.60;95.20;;;;;;5004331;28;20272;-71
2021/11/03 03:21:20;;;;;;;9.68;5.30;;;5.60;95.40;;;;;;5004405;28;20037;-71
2021/11/03 03:23:46;;;;;;;;;;;5.60;95.30;;;;;;5004479;28;20024;-72
2021/11/03 03:26:13;;;;;;;7.53;4.60;;;5.60;95.10;;;;;;5021505;28;19906;-71
2021/11/03 03:28:40;;;;;;;9.43;5.40;;;5.60;95.20;;;;;;5020494;28;20041;-72
2021/11/03 03:31:06;;;;;;;10.47;5.70;;;5.60;95.00;;;;;;5020466;28;20260;-72
2021/11/03 03:33:32;;;;;;;10.07;5.75;;;5.60;95.10;;;;;;5020104;28;20025;-71
2021/11/03 03:35:58;;;;;;;10.88;5.50;;;5.60;95.10;;;;;;5020457;28;20285;-72
2021/11/03 03:38:24;;;;;;;12.07;6.25;;;5.50;95.10;;;;;;5020866;28;20037;-71
2021/11/03 03:40:50;;;;;;;14.88;6.45;;;5.50;95.20;;;;;;5021553;28;20040;-71
2021/11/03 03:43:15;;;;;;;13.40;6.72;;;5.50;95.20;;;;;;5024230;28;20053;-71
2021/11/03 03:45:41;;;;;;;11.48;5.97;;;5.50;95.20;;;;;;5024353;28;20024;-71
2021/11/03 03:48:07;;;;;;;11.23;5.45;;;5.50;95.20;;;;;;5024159;28;20314;-71
2021/11/03 03:50:33;;;;;;;10.55;5.65;;;5.50;95.30;;;;;;5024663;28;20038;-71
2021/11/03 03:52:59;;;;;;;10.83;5.80;;;5.60;95.40;;;;;;5023516;28;20272;-71
2021/11/03 03:55:25;;;;;;;9.52;5.38;;;5.50;95.40;;;;;;5007822;28;20034;-71
2021/11/03 03:57:51;;;;;;;11.38;5.32;;;5.60;95.20;;;;;;5024954;28;20034;-71
2021/11/03 04:00:19;;;;;;;8.95;5.28;;;5.60;95.10;;;;;;5023931;28;20089;-71
2021/11/03 04:02:45;;;;;;;11.20;5.38;;;5.60;95.10;;;;;;4991660;28;20033;-71
2021/11/03 04:05:13;;;;;;;9.98;6.05;;;5.60;95.20;;;;;;5007587;28;20018;-71
2021/11/03 04:07:39;;;;;;;10.90;5.05;;;5.60;95.20;;;;;;5007846;28;20176;-71
2021/11/03 04:10:05;;;;;;;10.55;5.68;;;5.60;95.20;;;;;;5025166;28;20029;-71
2021/11/03 04:12:31;;;;;;;8.57;5.30;;;5.60;95.30;;;;;;5007628;28;20022;-71
2021/11/03 04:14:57;;;;;;;10.15;6.28;;;5.60;95.00;;;;;;5024818;28;20037;-71
2021/11/03 04:17:23;;;;;;;12.80;6.15;;;5.70;94.90;;;;;;5025044;28;20045;-71
2021/11/03 04:19:49;;;;;;;12.18;6.78;;;5.70;94.70;;;;;;5023920;28;20041;-71
2021/11/03 04:22:15;;;;;;;12.90;7.13;;;5.60;94.90;;;;;;5023573;28;20196;-71
2021/11/03 04:24:40;;;;;;;8.45;5.85;;;5.70;94.80;;;;;;4987619;28;20018;-71
2021/11/03 04:27:06;;;;;;;10.52;5.47;;;5.70;94.70;;;;;;4987560;28;20073;-71
2021/11/03 04:29:32;;;;;;;11.57;6.15;;;5.70;94.80;;;;;;5004991;28;20022;-71
2021/11/03 04:31:58;;;;;;;9.55;5.55;;;5.70;94.90;;;;;;5003880;28;20030;-71
2021/11/03 04:34:24;;;;;;;11.15;5.38;;;5.60;94.90;;;;;;5004671;28;20059;-71
2021/11/03 04:36:50;;;;;;;12.57;6.82;;;5.70;94.90;;;;;;5017598;28;20328;-71
2021/11/03 04:39:16;;;;;;;10.98;6.07;;;5.70;94.90;;;;;;5024339;28;20325;-71
2021/11/03 04:41:41;;;;;;;10.40;5.82;;;5.70;95.00;;;;;;5023013;28;20105;-71
2021/11/03 04:44:07;;;;;;;7.93;5.18;;;5.70;94.80;;;;;;5023111;28;20220;-71
2021/11/03 04:46:34;;;;;;;11.07;6.03;;;5.60;94.90;;;;;;5023349;28;20113;-71
2021/11/03 04:49:00;;;;;;;13.30;6.25;;;5.60;94.90;;;;;;5022898;28;20220;-71
2021/11/03 04:51:26;;;;;;;12.67;6.30;;;5.60;95.00;;;;;;5023259;28;20125;-71
2021/11/03 04:53:52;;;;;;;9.43;6.00;;;5.60;94.80;;;;;;5021999;28;20045;-71
2021/11/03 04:56:21;;;;;;;12.15;6.22;;;5.70;94.80;;;;;;5022380;28;20026;-71
2021/11/03 04:58:48;;;;;;;12.50;6.03;;;5.70;94.70;;;;;;5023295;28;20029;-71
2021/11/03 05:01:15;;;;;;;12.32;6.68;;;5.70;94.70;;;;;;5022964;28;20244;-71
2021/11/03 05:03:41;;;;;;;12.68;6.05;;;5.70;94.80;;;;;;5022707;28;20260;-71
2021/11/03 05:06:08;;;;;;;15.20;7.25;;;5.70;94.70;;;;;;5024116;28;20029;-71
2021/11/03 05:08:34;;;;;;;12.82;6.28;;;5.70;95.00;;;;;;5022960;28;20026;-71
2021/11/03 05:11:00;;;;;;;11.98;6.07;;;5.80;94.60;;;;;;5023830;28;20056;-71
2021/11/03 05:13:26;;;;;;;10.85;5.95;;;5.80;94.50;;;;;;5022569;28;20300;-71
2021/11/03 05:15:51;;;;;;;15.70;7.22;;;5.80;94.50;;;;;;5022704;28;20084;-71
2021/11/03 05:18:17;;;;;;;12.50;7.00;;;5.80;94.40;;;;;;5022693;28;20084;-71
2021/11/03 05:20:44;;;;;;;13.82;6.90;;;5.80;94.60;;;;;;5022693;28;20042;-70
2021/11/03 05:23:10;;;;;;;15.40;6.50;;;5.70;94.60;;;;;;5022441;28;20029;-71
2021/11/03 05:25:35;;;;;;;15.23;7.30;;;5.80;94.60;;;;;;5022513;28;20089;-71
2021/11/03 05:28:01;;;;;;;12.85;6.15;;;5.80;94.50;;;;;;5023357;28;20101;-71
2021/11/03 05:30:28;;;;;;;13.23;7.22;;;5.80;94.60;;;;;;5023716;28;20085;-71
2021/11/03 05:32:54;;;;;;;16.95;7.68;;;5.80;94.50;;;;;;5005950;28;20030;-71
2021/11/03 05:35:20;;;;;;;13.30;7.13;;;5.70;94.60;;;;;;5021877;28;20232;-71
2021/11/03 05:37:46;;;;;;;14.85;7.40;;;5.70;94.80;;;;;;5021824;28;20053;-71
2021/11/03 05:40:16;;;;;;;14.32;7.25;;;5.70;94.70;;;;;;5021292;28;20017;-71
2021/11/03 05:42:42;;;;;;;13.65;7.07;;;5.80;94.60;;;;;;5021711;28;20021;-71
2021/11/03 05:45:08;;;;;;;13.55;7.07;;;5.80;94.40;;;;;;5021575;28;20081;-71
2021/11/03 05:47:34;;;;;;;12.63;7.38;;;5.80;94.50;;;;;;5021626;28;20317;-71
2021/11/03 05:50:00;;;;;;;15.30;6.82;;;5.80;94.40;;;;;;5021786;28;20044;-71
2021/11/03 05:52:26;;;;;;;13.35;7.03;;;5.70;94.70;;;;;;5021643;28;20094;-71
2021/11/03 05:54:52;;;;;;;13.07;6.45;;;5.70;94.90;;;;;;5021315;28;20026;-71
2021/11/03 05:57:22;;;;;;;14.80;8.18;;;5.70;94.90;;;;;;5020701;28;20030;-71
2021/11/03 05:59:49;;;;;;;13.90;6.57;;;5.70;94.80;;;;;;4989562;28;20100;-71
2021/11/03 06:02:14;;;;;;;12.75;6.68;;;5.70;95.10;;;;;;4988844;28;20314;-71
2021/11/03 06:04:40;;;;;;;13.20;7.22;;;5.80;95.00;;;;;;5021204;28;20026;-70
2021/11/03 06:07:06;;;;;;;11.98;6.90;;;5.70;94.80;;;;;;5021173;28;20037;-71
2021/11/03 06:09:32;;;;;;;14.77;6.78;;;5.70;94.90;;;;;;5021550;28;20029;-71
2021/11/03 06:11:58;;;;;;;14.90;6.68;;;5.70;95.00;;;;;;5022081;28;20084;-71
2021/11/03 06:14:24;;;;;;;15.30;6.75;;;5.80;94.70;;;;;;5021033;28;20022;-71
2021/11/03 06:16:50;;;;;;;11.90;6.43;;;5.80;94.70;;;;;;4988786;28;20053;-71
2021/11/03 06:19:16;;;;;;;15.07;7.85;;;5.70;94.90;;;;;;5021145;28;20037;-71
2021/11/03 06:21:41;;;;;;;13.00;6.38;;;5.70;94.60;;;;;;5004704;28;20301;-71
2021/11/03 06:24:07;;;;;;;13.07;6.68;;;5.70;94.70;;;;;;5004448;28;20081;-71
2021/11/03 06:26:33;;;;;;;11.00;6.03;;;5.70;94.80;;;;;;5004411;28;20029;-71
2021/11/03 06:28:59;;;;;;;11.25;5.80;;;5.70;94.70;;;;;;5022178;28;20305;-71
2021/11/03 06:31:25;;;;;;;12.50;5.47;;;5.80;94.40;;;;;;5004403;28;20089;-68
2021/11/03 06:33:51;;;;;;;9.98;5.15;;;5.80;94.90;;;;;;5021700;28;20080;-71
2021/11/03 06:36:17;;;;;;;11.05;5.32;;;5.80;94.80;;;;;;5022200;28;20052;-71
2021/11/03 06:38:43;;;;;;;10.73;5.10;;;5.70;94.80;;;;;;5022030;28;20035;-71
2021/11/03 06:41:12;;;;;;;11.75;5.72;;;5.70;94.90;;;;;;5020617;28;20038;-71
2021/11/03 06:43:38;;;;;;;16.00;5.75;;;5.70;94.70;;;;;;5004438;28;20040;-71
2021/11/03 06:46:04;;;;;;;11.63;5.65;;;5.80;94.60;;;;;;5020842;28;20022;-71
2021/11/03 06:48:30;;;;;;;10.63;5.05;;;5.80;94.70;;;;;;5021971;28;20252;-71
2021/11/03 06:50:56;;;;;;;11.60;5.85;;;5.90;94.80;;;;;;5021777;28;20032;-71
2021/11/03 06:53:24;;;;;;;10.95;5.55;;;5.80;94.80;;;;;;5004326;28;20240;-71
2021/11/03 06:55:50;;;;;;;14.18;7.38;;;5.80;94.80;;;;;;5020712;28;20036;-72
2021/11/03 06:58:21;;;;;;;13.40;6.53;;;5.80;94.70;;;;;;5019785;28;20017;-71
2021/11/03 07:00:48;;;;;;;10.68;5.68;;;5.90;94.60;;;;;;5021171;28;20034;-71
2021/11/03 07:03:14;;;;;;;12.82;5.75;;;5.90;94.50;;;;;;5004136;28;20067;-71
2021/11/03 07:05:43;;;;;;;10.52;5.88;;;5.80;94.80;;;;;;5020527;28;20018;-71
2021/11/03 07:08:09;;;;;;;14.43;6.78;;;5.90;94.90;;;;;;5020594;28;20057;-71
2021/11/03 07:10:39;;;;;;;11.98;6.18;;;5.80;94.90;;;;;;5021674;28;20029;-71
2021/11/03 07:13:06;;;;;;;13.88;6.03;;;5.90;95.00;;;;;;5004043;28;20072;-71
2021/11/03 07:15:32;;;;;;;10.95;5.40;;;5.90;95.00;;;;;;5020108;28;20049;-71
2021/11/03 07:17:58;;;;;;;9.23;5.13;;;6.00;95.00;;;;;;5020423;28;20033;-72
2021/11/03 07:20:24;;;;;;;9.75;5.28;;;6.10;94.90;;;;;;5020317;28;20033;-71
2021/11/03 07:22:50;;;;;;;10.80;5.13;;;6.20;94.50;;;;;;5003959;28;20078;-71
2021/11/03 07:25:19;;;;;;;13.57;6.00;;;6.30;94.50;;;;;;5003700;28;20025;-72
2021/11/03 07:27:46;;;;;;;10.68;5.60;;;6.40;94.40;;;;;;5020254;28;20101;-71
2021/11/03 07:30:12;;;;;;;12.45;5.30;;;6.50;94.40;;;;;;5020156;28;20261;-71
2021/11/03 07:32:38;;;;;;;9.73;5.53;;;6.50;94.00;;;;;;5020311;28;20101;-72
2021/11/03 07:35:04;;;;;;;9.93;5.55;;;6.50;94.00;;;;;;5021083;28;20095;-71
2021/11/03 07:37:30;;;;;;;10.23;5.25;;;6.60;93.60;;;;;;5019892;28;20038;-71
2021/11/03 07:39:56;;;;;;;10.13;5.22;;;6.60;93.80;;;;;;5019890;28;20037;-71
2021/11/03 07:42:22;;;;;;;11.38;5.10;;;6.60;93.90;;;;;;5019462;28;20132;-71
2021/11/03 07:44:48;;;;;;;12.25;5.47;;;6.70;93.60;;;;;;5021003;28;20384;-71
2021/11/03 07:47:15;;;;;;;11.45;5.63;;;6.70;93.40;;;;;;5019685;28;20034;-70
2021/11/03 07:49:41;;;;;;;9.98;4.40;;;6.70;93.00;;;;;;5020045;28;20117;-72
2021/11/03 07:52:07;;;;;;;9.15;5.28;;;6.70;93.40;;;;;;5003681;28;20049;-72
2021/11/03 07:54:33;;;;;;;9.77;5.03;;;6.60;93.70;;;;;;5020962;28;20029;-71
2021/11/03 07:56:59;;;;;;;13.57;5.93;;;6.60;94.00;;;;;;5003297;28;20044;-71
2021/11/03 07:59:25;;;;;;;14.38;6.00;;;6.60;94.10;;;;;;5002855;28;20081;-70
2021/11/03 08:01:51;;;;;;;9.95;4.90;;;6.60;93.90;;;;;;5019900;28;20085;-71
2021/11/03 08:04:18;;;;;;;8.80;4.85;;;6.60;93.90;;;;;;5019549;28;20340;-71
2021/11/03 08:06:44;;;;;;;8.18;4.53;;;6.60;94.00;;;;;;5019817;28;20348;-71
2021/11/03 08:09:10;;;;;;;10.65;4.93;;;6.60;93.80;;;;;;5020038;28;20037;-71
2021/11/03 08:11:53;;;;;;;8.02;4.80;;;6.70;93.60;;;;;;5019674;28;20328;-71
2021/11/03 08:14:25;;;;;;;9.35;4.95;;;6.70;93.60;;;;;;5019719;28;20065;-71
2021/11/03 08:17:10;;;;;;;8.95;4.13;;;6.70;93.70;;;;;;5019834;28;20102;-71
2021/11/03 08:19:53;;;;;;;7.50;4.03;;;6.80;93.50;;;;;;5019819;28;20030;-71
2021/11/03 08:22:20;;;;;;;9.00;4.70;;;6.70;93.60;;;;;;5019513;28;20080;-71
2021/11/03 08:24:47;;;;;;;7.60;4.40;;;6.80;93.50;;;;;;5019271;28;20084;-71
2021/11/03 08:27:13;;;;;;;9.18;4.63;;;6.80;93.60;;;;;;5020314;28;20029;-71
2021/11/03 08:29:39;;;;;;;12.27;5.33;;;7.00;93.70;;;;;;5023075;28;20029;-71
2021/11/03 08:32:06;;;;;;;7.90;4.10;;;7.10;93.60;;;;;;5022982;28;20017;-71
2021/11/03 08:34:32;;;;;;;10.32;4.60;;;7.20;93.30;;;;;;5006412;28;20104;-71
2021/11/03 08:37:07;;;;;;;8.90;4.23;;;7.30;93.10;;;;;;5006723;28;20216;-71
2021/11/03 08:39:33;;;;;;;10.18;4.65;;;7.30;92.80;;;;;;5007297;28;20025;-71
2021/11/03 08:42:00;;;;;;;8.35;3.72;;;7.30;92.70;;;;;;5005798;28;20053;-71
2021/11/03 08:44:27;;;;;;;8.68;4.15;;;7.30;92.70;;;;;;5006408;28;20018;-71
2021/11/03 08:46:53;;;;;;;8.50;4.00;;;7.30;92.60;;;;;;5022701;28;20030;-71
2021/11/03 08:49:19;;;;;;;7.22;4.13;;;7.40;92.80;;;;;;5022932;28;20018;-71
2021/11/03 08:51:45;;;;;;;8.70;4.32;;;7.40;92.80;;;;;;5023021;28;20057;-71
2021/11/03 08:54:11;;;;;;;10.38;4.75;;;7.50;92.80;;;;;;5022643;28;20085;-71
2021/11/03 08:56:37;;;;;;;9.13;4.85;;;7.50;92.90;;;;;;5022794;28;20089;-71
2021/11/03 08:59:06;;;;;;;8.60;4.97;;;7.70;92.40;;;;;;5022960;28;20088;-71
2021/11/03 09:01:32;;;;;;;9.55;4.95;;;7.80;92.30;;;;;;5022580;28;20332;-72
2021/11/03 09:03:57;;;;;;;7.47;4.15;;;8.00;91.30;;;;;;5022646;28;20340;-72
2021/11/03 09:06:23;;;;;;;7.32;4.63;;;8.10;91.60;;;;;;5023005;28;20129;-72
2021/11/03 09:08:50;;;;;;;12.65;5.10;;;8.10;92.00;;;;;;5023012;28;20038;-72
2021/11/03 09:11:18;;;;;;;;;;;8.20;92.40;;;;;;5007170;28;20021;-72
2021/11/03 09:13:43;;;;;;;10.13;4.38;;;8.40;91.50;;;;;;5023492;28;19917;-72
2021/11/03 09:16:09;;;;;;;7.78;4.20;;;8.40;90.70;;;;;;5023710;28;20282;-72
2021/11/03 09:18:35;;;;;;;8.23;4.35;;;8.60;90.30;;;;;;5022727;28;20088;-72
2021/11/03 09:21:01;;;;;;;7.75;4.80;;;8.50;90.90;;;;;;5023876;28;20025;-72
2021/11/03 09:23:27;;;;;;;6.93;4.50;;;8.50;90.60;;;;;;5023508;28;20053;-72
2021/11/03 09:25:53;;;;;;;7.80;4.43;;;8.60;90.40;;;;;;5022772;28;20093;-72
2021/11/03 09:28:20;;;;;;;9.40;4.65;;;8.50;90.60;;;;;;5022541;28;20093;-72
2021/11/03 09:30:46;;;;;;;7.82;4.32;;;8.60;90.60;;;;;;5022805;28;20037;-73
2021/11/03 09:33:12;;;;;;;9.00;4.53;;;8.60;90.80;;;;;;5022268;28;20190;-72
2021/11/03 09:35:47;;;;;;;7.43;4.38;;;8.70;90.70;;;;;;5023645;28;20233;-72
2021/11/03 09:38:16;;;;;;;9.73;4.72;;;8.70;90.70;;;;;;5022471;28;20029;-72
2021/11/03 09:40:48;;;;;;;7.75;4.53;;;8.90;90.20;;;;;;5006035;28;20036;-72
2021/11/03 09:43:43;;;;;;;6.65;4.68;;;8.80;90.70;;;;;;5022888;28;20052;-72
2021/11/03 09:46:27;;;;;;;10.30;5.25;;;8.90;90.30;;;;;;5022414;28;20036;-72
2021/11/03 09:49:31;;;;;;;8.82;4.40;;;9.00;89.90;;;;;;5023074;28;20383;-72
2021/11/03 09:52:14;;;;;;;7.30;4.65;;;9.00;90.00;;;;;;5022041;28;20029;-72
2021/11/03 09:54:43;;;;;;;7.43;4.60;;;9.10;90.20;;;;;;5007370;28;20280;-72
2021/11/03 09:57:41;;;;;;;8.75;4.30;;;9.30;90.10;;;;;;5005839;28;20048;-72
2021/11/03 10:00:45;;;;;;;7.72;4.35;;;9.30;90.00;;;;;;5022060;28;20064;-72
2021/11/03 10:03:41;;;;;;;8.02;4.35;;;9.40;89.60;;;;;;5008631;28;20230;-72
2021/11/03 10:06:44;;;;;;;7.20;4.18;;;9.20;90.00;;;;;;5021986;28;20022;-72
2021/11/03 10:09:10;;;;;;;7.22;4.28;;;9.20;90.10;;;;;;5002449;28;20048;-72
2021/11/03 10:11:46;;;;;;;7.83;4.60;;;9.10;89.90;;;;;;5021566;28;20348;-72
2021/11/03 10:14:12;;;;;;;9.43;4.85;;;9.10;90.30;;;;;;5021079;28;20036;-72
2021/11/03 10:16:47;;;;;;;8.40;5.20;;;9.20;89.80;;;;;;5021515;28;20065;-72
2021/11/03 10:19:13;;;;;;;7.72;4.63;;;9.20;89.40;;;;;;5022440;28;20041;-73
2021/11/03 10:21:49;;;;;;;7.20;4.40;;;9.20;89.70;;;;;;5022511;28;20025;-72
2021/11/03 10:24:15;;;;;;;7.25;4.75;;;9.10;90.10;;;;;;5005142;28;20329;-72
2021/11/03 10:27:04;;;;;;;8.27;4.68;;;9.10;90.30;;;;;;5021862;28;20279;-72
2021/11/03 10:29:33;;;;;;;8.45;4.55;;;9.20;90.10;;;;;;5016052;28;20061;-72
2021/11/03 10:32:19;;;;;;;7.43;4.70;;;9.20;90.00;;;;;;5021111;28;20057;-72
2021/11/03 10:34:50;;;;;;;8.68;4.05;;;9.30;90.30;;;;;;5014822;28;20265;-72
2021/11/03 10:37:20;;;;;;;9.63;5.45;;;9.40;89.90;;;;;;5021107;28;20026;-72
2021/11/03 10:40:00;;;;;;;7.97;4.80;;;9.60;88.80;;;;;;5021225;28;20233;-72
2021/11/03 10:42:49;;;;;;;5.68;3.92;;;9.60;88.90;;;;;;4986361;28;20225;-72
2021/11/03 10:45:27;;;;;;;8.18;4.68;;;9.70;89.10;;;;;;5001141;28;20030;-72
2021/11/03 10:48:09;;;;;;;5.72;3.78;;;9.70;89.50;;;;;;5001396;28;20066;-72
2021/11/03 10:50:56;;;;;;;7.75;4.47;;;9.80;88.60;;;;;;5000783;28;20025;-72
2021/11/03 10:53:29;;;;;;;7.68;4.53;;;9.80;88.30;;;;;;5003290;28;20098;-72
2021/11/03 10:56:19;;;;;;;7.25;4.78;;;9.80;89.20;;;;;;5001294;28;20037;-72
2021/11/03 10:58:51;;;;;;;7.25;4.22;;;9.90;87.30;;;;;;4985271;28;20290;-72
2021/11/03 11:01:23;;;;;;;8.02;4.22;;;9.90;87.40;;;;;;5000967;28;20272;-72
2021/11/03 11:04:05;;;;;;;7.72;5.30;;;10.00;86.90;;;;;;5007228;28;20022;-72
2021/11/03 11:06:52;;;;;;;10.15;5.35;;;9.90;87.80;;;;;;5022741;28;20053;-72
2021/11/03 11:09:45;;;;;;;8.27;4.97;;;9.90;87.00;;;;;;5022459;28;20046;-72
2021/11/03 11:12:32;;;;;;;7.32;4.10;;;9.90;88.00;;;;;;5006585;28;20194;-72
2021/11/03 11:15:19;;;;;;;7.28;4.55;;;10.00;87.60;;;;;;5020634;28;20037;-72
2021/11/03 11:17:49;;;;;;;8.02;4.82;;;10.00;87.50;;;;;;5006787;28;20387;-72
2021/11/03 11:20:31;;;;;;;7.93;5.32;;;9.90;87.30;;;;;;5020986;28;20383;-72
2021/11/03 11:23:34;;;;;;;8.43;4.65;;;9.90;87.40;;;;;;5020518;28;20096;-72
2021/11/03 11:26:16;;;;;;;7.93;5.13;;;10.00;87.50;;;;;;4994463;28;20069;-72
2021/11/03 11:29:32;;;;;;;6.55;4.20;;;10.00;87.20;;;;;;5020341;28;20044;-72
2021/11/03 11:32:22;;;;;;;7.15;4.53;;;9.80;87.90;;;;;;4989238;28;20034;-72
2021/11/03 11:35:33;;;;;;;7.88;4.72;;;9.80;87.90;;;;;;5023241;28;20033;-72
2021/11/03 11:38:08;;;;;;;7.78;4.80;;;9.70;87.70;;;;;;5016203;28;20348;-72
2021/11/03 11:40:54;;;;;;;7.10;4.75;;;9.80;87.30;;;;;;5020307;28;20375;-72
2021/11/03 11:43:32;;;;;;;7.32;4.47;;;9.80;88.20;;;;;;5020312;28;20101;-72
2021/11/03 11:46:16;;;;;;;7.75;5.18;;;9.80;88.80;;;;;;5021043;28;20265;-72
2021/11/03 11:48:42;;;;;;;7.47;4.30;;;9.80;88.20;;;;;;5022353;28;20321;-72
2021/11/03 11:51:27;;;;;;;6.87;4.13;;;9.90;88.10;;;;;;5020432;28;20097;-72
2021/11/03 11:53:55;;;;;;;7.82;4.13;;;9.90;87.70;;;;;;5022271;28;20026;-72
2021/11/03 11:56:26;;;;;;;7.43;4.20;;;9.90;87.60;;;;;;5021522;28;20283;-71
2021/11/03 11:58:59;;;;;;;7.13;4.28;;;10.00;86.90;;;;;;5003995;28;20097;-72
2021/11/03 12:01:37;;;;;;;7.07;4.35;;;9.90;86.90;;;;;;5021333;28;20104;-72
2021/11/03 12:04:03;;;;;;;7.18;4.30;;;9.90;87.10;;;;;;5025428;28;20049;-71
2021/11/03 12:06:51;;;;;;;7.77;4.40;;;10.00;86.70;;;;;;5024951;28;20248;-72
2021/11/03 12:09:33;;;;;;;6.95;3.67;;;9.90;88.00;;;;;;5024289;28;20033;-72
2021/11/03 12:12:08;;;;;;;6.00;4.40;;;10.00;87.40;;;;;;5025436;28;20037;-72
2021/11/03 12:14:41;;;;;;;7.53;3.80;;;10.10;87.90;;;;;;5024974;28;20089;-72
2021/11/03 12:17:07;;;;;;;7.22;4.28;;;10.20;87.70;;;;;;5008559;28;20021;-72
2021/11/03 12:19:40;;;;;;;6.60;4.40;;;10.20;87.70;;;;;;5025052;28;20036;-72
2021/11/03 12:22:17;;;;;;;5.80;3.88;;;10.30;85.90;;;;;;5023788;28;20026;-71
2021/11/03 12:24:51;;;;;;;5.82;3.92;;;10.30;85.90;;;;;;5024781;28;20026;-72
2021/11/03 12:27:23;;;;;;;4.95;3.00;;;10.30;85.60;;;;;;5024526;28;20351;-72
2021/11/03 12:30:07;;;;;;;3.72;2.78;;;10.30;85.50;;;;;;5024779;28;20101;-72
2021/11/03 12:32:45;;;;;;;6.68;4.18;;;10.30;86.00;;;;;;5023704;28;20036;-72
2021/11/03 12:35:16;;;;;;;;;;;10.30;86.10;;;;;;5024781;28;20045;-72
2021/11/03 12:37:42;;;;;;;7.43;3.70;;;10.30;85.80;;;;;;5024530;28;19923;-70
2021/11/03 12:40:37;;;;;;;7.00;3.47;;;10.40;85.60;;;;;;5023521;28;20050;-71
2021/11/03 12:43:31;;;;;;;5.55;3.15;;;10.40;86.50;;;;;;5020310;28;20034;-71
2021/11/03 12:46:07;;;;;;;5.82;3.53;;;10.50;85.70;;;;;;5023918;28;20022;-71
2021/11/03 12:48:55;;;;;;;3.28;2.33;;;10.40;84.90;;;;;;5022755;28;20068;-72
2021/11/03 12:51:31;;;;;;;4.10;2.42;;;10.50;85.40;;;;;;5007065;28;20152;-72
2021/11/03 12:54:29;;;;;;;4.13;2.15;;;10.50;85.00;;;;;;5023129;28;20026;-72
2021/11/03 12:57:01;;;;;;;3.33;2.33;;;10.40;85.20;;;;;;5023088;28;20102;-72
2021/11/03 12:59:40;;;;;;;5.78;2.60;;;10.40;85.40;;;;;;5022475;28;20025;-72
2021/11/03 13:02:20;;;;;;;4.18;2.45;;;10.40;85.00;;;;;;5007529;28;20022;-71
2021/11/03 13:04:55;;;;;;;3.85;2.47;;;10.40;85.90;;;;;;5022513;28;20041;-72
2021/11/03 13:07:25;;;;;;;4.25;2.40;;;10.40;85.20;;;;;;5022809;28;20045;-72
2021/11/03 13:10:18;;;;;;;3.95;2.72;;;10.40;84.80;;;;;;5006725;28;20032;-71